sensor_id;sensor_type;location;lat;lon;timestamp;pressure;altitude;pressure_sealevel;temperature;humidity
78182;BME280;67441;50.116;8.696;2023-04-03T00:00:18;101417.47;;;4.94;59.47
78182;BME280;67441;50.116;8.696;2023-04-03T00:00:44;101417.56;;;4.95;59.93
78182;BME280;67441;50.116;8.696;2023-04-03T00:01:09;101415.84;;;4.96;60.32
78182;BME280;67441;50.116;8.696;2023-04-03T00:01:35;101412.41;;;4.97;60.04
78182;BME280;67441;50.116;8.696;2023-04-03T00:02:03;101329.09;;;4.48;59.80
78182;BME280;67441;50.116;8.696;2023-04-03T00:02:28;101415.84;;;4.96;59.88
78182;BME280;67441;50.116;8.696;2023-04-03T00:02:54;101281.09;;;4.10;59.74
78182;BME280;67441;50.116;8.696;2023-04-03T00:03:19;101417.63;;;4.97;60.30
78182;BME280;67441;50.116;8.696;2023-04-03T00:03:45;101420.75;;;4.90;59.73
78182;BME280;67441;50.116;8.696;2023-04-03T00:04:10;101412.03;;;4.89;59.80
78182;BME280;67441;50.116;8.696;2023-04-03T00:04:36;101391.41;;;4.77;60.33
78182;BME280;67441;50.116;8.696;2023-04-03T00:05:02;101278.97;;;4.19;59.98
78182;BME280;67441;50.116;8.696;2023-04-03T00:05:27;101416.59;;;4.93;60.03
78182;BME280;67441;50.116;8.696;2023-04-03T00:05:52;101414.97;;;4.95;60.09
78182;BME280;67441;50.116;8.696;2023-04-03T00:06:18;101319.06;;;4.39;60.10
78182;BME280;67441;50.116;8.696;2023-04-03T00:06:44;101411.53;;;4.96;60.28
78182;BME280;67441;50.116;8.696;2023-04-03T00:07:09;101403.47;;;4.92;60.39
78182;BME280;67441;50.116;8.696;2023-04-03T00:07:35;101421.28;;;5.00;59.71
78182;BME280;67441;50.116;8.696;2023-04-03T00:08:01;101420.25;;;4.97;59.99
78182;BME280;67441;50.116;8.696;2023-04-03T00:08:27;101370.91;;;4.67;60.16
78182;BME280;67441;50.116;8.696;2023-04-03T00:08:56;101424.25;;;4.90;60.05
78182;BME280;67441;50.116;8.696;2023-04-03T00:09:21;101418.03;;;4.88;60.13
78182;BME280;67441;50.116;8.696;2023-04-03T00:09:47;101419.75;;;4.88;60.22
78182;BME280;67441;50.116;8.696;2023-04-03T00:10:12;101416.03;;;4.83;60.48
78182;BME280;67441;50.116;8.696;2023-04-03T00:10:38;101337.31;;;4.39;60.60
78182;BME280;67441;50.116;8.696;2023-04-03T00:11:04;101410.81;;;4.83;60.83
78182;BME280;67441;50.116;8.696;2023-04-03T00:11:30;101424.81;;;4.85;60.76
78182;BME280;67441;50.116;8.696;2023-04-03T00:11:55;101409.84;;;4.81;60.94
78182;BME280;67441;50.116;8.696;2023-04-03T00:12:21;101336.03;;;4.31;60.87
78182;BME280;67441;50.116;8.696;2023-04-03T00:12:46;101415.00;;;4.79;60.98
78182;BME280;67441;50.116;8.696;2023-04-03T00:13:12;101167.00;;;3.36;61.05
78182;BME280;67441;50.116;8.696;2023-04-03T00:13:39;101345.47;;;4.29;60.84
78182;BME280;67441;50.116;8.696;2023-04-03T00:14:04;101414.38;;;4.85;61.05
78182;BME280;67441;50.116;8.696;2023-04-03T00:14:30;101185.34;;;3.55;60.88
78182;BME280;67441;50.116;8.696;2023-04-03T00:14:56;101416.66;;;4.95;60.68
78182;BME280;67441;50.116;8.696;2023-04-03T00:15:21;101443.56;;;4.94;60.28
78182;BME280;67441;50.116;8.696;2023-04-03T00:15:47;101420.97;;;4.94;60.20
78182;BME280;67441;50.116;8.696;2023-04-03T00:16:13;101293.56;;;4.16;60.53
78182;BME280;67441;50.116;8.696;2023-04-03T00:16:38;101424.25;;;4.90;60.90
78182;BME280;67441;50.116;8.696;2023-04-03T00:17:03;101449.63;;;4.93;60.70
78182;BME280;67441;50.116;8.696;2023-04-03T00:17:29;101420.09;;;4.94;60.52
78182;BME280;67441;50.116;8.696;2023-04-03T00:17:55;101433.34;;;4.98;60.48
78182;BME280;67441;50.116;8.696;2023-04-03T00:18:20;101421.22;;;4.99;60.31
78182;BME280;67441;50.116;8.696;2023-04-03T00:18:46;101313.47;;;4.32;60.65
78182;BME280;67441;50.116;8.696;2023-04-03T00:19:11;101426.28;;;4.96;60.03
78182;BME280;67441;50.116;8.696;2023-04-03T00:19:37;101314.69;;;4.38;60.36
78182;BME280;67441;50.116;8.696;2023-04-03T00:20:03;101421.97;;;4.96;60.58
78182;BME280;67441;50.116;8.696;2023-04-03T00:20:29;101173.16;;;3.54;60.03
78182;BME280;67441;50.116;8.696;2023-04-03T00:20:54;101427.03;;;4.93;60.64
78182;BME280;67441;50.116;8.696;2023-04-03T00:21:20;101389.31;;;4.70;60.70
78182;BME280;67441;50.116;8.696;2023-04-03T00:21:45;101423.69;;;4.96;60.22
78182;BME280;67441;50.116;8.696;2023-04-03T00:22:11;101426.03;;;4.91;60.50
78182;BME280;67441;50.116;8.696;2023-04-03T00:22:37;101425.09;;;4.89;60.57
78182;BME280;67441;50.116;8.696;2023-04-03T00:23:02;101426.78;;;4.89;60.57
78182;BME280;67441;50.116;8.696;2023-04-03T00:23:28;101419.13;;;4.92;60.57
78182;BME280;67441;50.116;8.696;2023-04-03T00:23:56;101278.25;;;4.05;60.84
78182;BME280;67441;50.116;8.696;2023-04-03T00:24:21;101330.63;;;4.44;60.61
78182;BME280;67441;50.116;8.696;2023-04-03T00:24:47;101421.81;;;4.93;60.35
78182;BME280;67441;50.116;8.696;2023-04-03T00:25:12;101428.91;;;4.96;60.98
78182;BME280;67441;50.116;8.696;2023-04-03T00:25:38;101424.56;;;4.96;60.67
78182;BME280;67441;50.116;8.696;2023-04-03T00:26:04;101174.78;;;3.52;60.72
78182;BME280;67441;50.116;8.696;2023-04-03T00:26:30;101428.28;;;5.01;60.43
78182;BME280;67441;50.116;8.696;2023-04-03T00:26:55;101204.06;;;3.81;60.05
78182;BME280;67441;50.116;8.696;2023-04-03T00:27:20;101425.09;;;5.07;60.60
78182;BME280;67441;50.116;8.696;2023-04-03T00:27:46;101447.09;;;5.12;60.34
78182;BME280;67441;50.116;8.696;2023-04-03T00:28:11;101430.56;;;5.12;60.30
78182;BME280;67441;50.116;8.696;2023-04-03T00:28:37;101303.84;;;4.47;60.23
78182;BME280;67441;50.116;8.696;2023-04-03T00:29:02;101424.38;;;5.10;60.24
78182;BME280;67441;50.116;8.696;2023-04-03T00:29:28;101263.19;;;4.16;60.64
78182;BME280;67441;50.116;8.696;2023-04-03T00:29:53;101421.69;;;5.08;60.30
78182;BME280;67441;50.116;8.696;2023-04-03T00:30:20;101428.38;;;5.03;60.34
78182;BME280;67441;50.116;8.696;2023-04-03T00:30:48;101408.75;;;4.93;60.35
78182;BME280;67441;50.116;8.696;2023-04-03T00:31:15;101323.13;;;4.50;60.20
78182;BME280;67441;50.116;8.696;2023-04-03T00:31:41;101193.22;;;3.73;59.92
78182;BME280;67441;50.116;8.696;2023-04-03T00:32:07;101426.72;;;5.05;59.77
78182;BME280;67441;50.116;8.696;2023-04-03T00:32:32;101258.88;;;4.00;60.21
78182;BME280;67441;50.116;8.696;2023-04-03T00:32:58;101422.78;;;4.95;60.55
78182;BME280;67441;50.116;8.696;2023-04-03T00:33:24;101297.94;;;4.17;59.70
78182;BME280;67441;50.116;8.696;2023-04-03T00:33:50;101381.44;;;4.69;59.81
78182;BME280;67441;50.116;8.696;2023-04-03T00:34:15;101422.84;;;4.97;60.66
78182;BME280;67441;50.116;8.696;2023-04-03T00:34:40;101315.84;;;4.27;60.41
78182;BME280;67441;50.116;8.696;2023-04-03T00:35:06;101427.09;;;4.95;60.69
78182;BME280;67441;50.116;8.696;2023-04-03T00:35:32;101413.81;;;4.90;60.68
78182;BME280;67441;50.116;8.696;2023-04-03T00:35:59;101428.22;;;5.00;60.39
78182;BME280;67441;50.116;8.696;2023-04-03T00:36:24;101423.84;;;4.99;60.77
78182;BME280;67441;50.116;8.696;2023-04-03T00:36:51;101335.13;;;4.47;60.64
78182;BME280;67441;50.116;8.696;2023-04-03T00:37:16;101424.78;;;5.01;60.65
78182;BME280;67441;50.116;8.696;2023-04-03T00:37:43;101404.38;;;4.92;61.07
78182;BME280;67441;50.116;8.696;2023-04-03T00:38:09;101344.22;;;4.55;60.35
78182;BME280;67441;50.116;8.696;2023-04-03T00:38:35;101425.09;;;5.07;60.15
78182;BME280;67441;50.116;8.696;2023-04-03T00:39:00;101345.44;;;4.45;60.33
78182;BME280;67441;50.116;8.696;2023-04-03T00:39:25;101422.34;;;5.04;60.81
78182;BME280;67441;50.116;8.696;2023-04-03T00:39:51;101436.44;;;5.08;60.60
78182;BME280;67441;50.116;8.696;2023-04-03T00:40:16;101429.66;;;5.11;60.99
78182;BME280;67441;50.116;8.696;2023-04-03T00:40:44;101254.59;;;4.19;60.55
78182;BME280;67441;50.116;8.696;2023-04-03T00:41:10;101425.66;;;5.18;60.13
78182;BME280;67441;50.116;8.696;2023-04-03T00:41:35;101427.28;;;5.16;60.46
78182;BME280;67441;50.116;8.696;2023-04-03T00:42:01;101428.25;;;5.18;60.39
78182;BME280;67441;50.116;8.696;2023-04-03T00:42:26;101423.88;;;5.17;60.31
78182;BME280;67441;50.116;8.696;2023-04-03T00:42:56;101422.66;;;5.10;59.93
78182;BME280;67441;50.116;8.696;2023-04-03T00:43:24;101428.03;;;5.13;60.31
78182;BME280;67441;50.116;8.696;2023-04-03T00:43:49;101390.34;;;4.90;60.01
78182;BME280;67441;50.116;8.696;2023-04-03T00:45:38;101407.50;;;5.03;60.71
78182;BME280;67441;50.116;8.696;2023-04-03T00:46:05;101408.56;;;5.07;60.64
78182;BME280;67441;50.116;8.696;2023-04-03T00:46:30;101430.88;;;5.18;59.98
78182;BME280;67441;50.116;8.696;2023-04-03T00:46:55;101432.66;;;5.19;60.31
78182;BME280;67441;50.116;8.696;2023-04-03T00:47:20;101429.88;;;5.16;60.30
78182;BME280;67441;50.116;8.696;2023-04-03T00:47:46;101438.53;;;5.15;60.27
78182;BME280;67441;50.116;8.696;2023-04-03T00:48:13;101429.66;;;5.11;60.46
78182;BME280;67441;50.116;8.696;2023-04-03T00:48:44;101178.25;;;3.69;60.08
78182;BME280;67441;50.116;8.696;2023-04-03T00:49:10;101432.22;;;5.10;60.67
78182;BME280;67441;50.116;8.696;2023-04-03T00:49:35;101438.38;;;5.12;60.75
78182;BME280;67441;50.116;8.696;2023-04-03T00:50:01;101445.81;;;5.04;60.80
78182;BME280;67441;50.116;8.696;2023-04-03T00:50:28;101302.25;;;4.16;60.82
78182;BME280;67441;50.116;8.696;2023-04-03T00:50:55;101333.91;;;4.40;60.58
78182;BME280;67441;50.116;8.696;2023-04-03T00:51:23;101330.81;;;4.31;61.00
78182;BME280;67441;50.116;8.696;2023-04-03T00:51:49;101433.66;;;5.05;60.65
78182;BME280;67441;50.116;8.696;2023-04-03T00:52:19;101436.22;;;5.03;60.87
78182;BME280;67441;50.116;8.696;2023-04-03T00:52:46;101362.03;;;4.64;60.71
78182;BME280;67441;50.116;8.696;2023-04-03T00:53:17;101331.59;;;4.46;60.80
78182;BME280;67441;50.116;8.696;2023-04-03T00:53:49;101439.72;;;5.04;60.62
78182;BME280;67441;50.116;8.696;2023-04-03T00:54:15;101304.81;;;4.33;60.48
78182;BME280;67441;50.116;8.696;2023-04-03T00:54:41;101426.44;;;4.99;60.95
78182;BME280;67441;50.116;8.696;2023-04-03T00:55:08;101385.25;;;4.75;61.24
78182;BME280;67441;50.116;8.696;2023-04-03T00:55:35;101402.00;;;4.81;61.00
78182;BME280;67441;50.116;8.696;2023-04-03T00:56:06;101427.91;;;4.94;60.94
78182;BME280;67441;50.116;8.696;2023-04-03T00:56:32;101355.31;;;4.51;60.88
78182;BME280;67441;50.116;8.696;2023-04-03T00:56:57;101429.69;;;4.95;60.97
78182;BME280;67441;50.116;8.696;2023-04-03T00:57:23;101340.69;;;4.37;61.35
78182;BME280;67441;50.116;8.696;2023-04-03T00:57:48;101424.19;;;4.89;61.45
78182;BME280;67441;50.116;8.696;2023-04-03T00:58:16;101439.06;;;4.91;61.70
78182;BME280;67441;50.116;8.696;2023-04-03T00:59:44;101431.41;;;4.94;61.65
78182;BME280;67441;50.116;8.696;2023-04-03T00:59:52;101429.78;;;4.96;61.70
78182;BME280;67441;50.116;8.696;2023-04-03T01:00:20;101388.00;;;4.79;61.31
78182;BME280;67441;50.116;8.696;2023-04-03T01:00:52;101377.09;;;4.69;60.99
78182;BME280;67441;50.116;8.696;2023-04-03T01:01:25;101435.38;;;5.04;60.96
78182;BME280;67441;50.116;8.696;2023-04-03T01:01:56;101406.22;;;4.95;61.07
78182;BME280;67441;50.116;8.696;2023-04-03T01:02:22;101428.53;;;5.06;61.40
78182;BME280;67441;50.116;8.696;2023-04-03T01:02:47;101435.59;;;5.09;61.51
78182;BME280;67441;50.116;8.696;2023-04-03T01:03:13;101433.09;;;5.10;61.32
78182;BME280;67441;50.116;8.696;2023-04-03T01:03:38;101436.59;;;5.11;61.25
78182;BME280;67441;50.116;8.696;2023-04-03T01:04:05;101429.66;;;5.11;61.06
78182;BME280;67441;50.116;8.696;2023-04-03T01:04:36;101411.84;;;5.03;61.52
78182;BME280;67441;50.116;8.696;2023-04-03T01:05:02;101413.63;;;5.04;60.59
78182;BME280;67441;50.116;8.696;2023-04-03T01:05:27;101427.63;;;5.06;61.06
78182;BME280;67441;50.116;8.696;2023-04-03T01:05:53;101429.59;;;5.10;60.91
78182;BME280;67441;50.116;8.696;2023-04-03T01:06:20;101382.44;;;4.89;60.50
78182;BME280;67441;50.116;8.696;2023-04-03T01:06:46;101430.56;;;5.12;60.34
78182;BME280;67441;50.116;8.696;2023-04-03T01:07:12;101431.94;;;5.05;60.84
78182;BME280;67441;50.116;8.696;2023-04-03T01:07:39;101345.03;;;4.54;60.86
78182;BME280;67441;50.116;8.696;2023-04-03T01:08:05;101435.72;;;5.10;60.60
78182;BME280;67441;50.116;8.696;2023-04-03T01:08:31;101412.34;;;4.95;60.64
78182;BME280;67441;50.116;8.696;2023-04-03T01:08:57;101432.84;;;5.06;60.91
78182;BME280;67441;50.116;8.696;2023-04-03T01:09:22;101425.84;;;5.05;60.87
78182;BME280;67441;50.116;8.696;2023-04-03T01:09:51;101427.72;;;5.07;61.12
78182;BME280;67441;50.116;8.696;2023-04-03T01:10:19;101358.97;;;4.55;60.82
78182;BME280;67441;50.116;8.696;2023-04-03T01:10:46;101438.88;;;5.05;61.01
78182;BME280;67441;50.116;8.696;2023-04-03T01:11:11;101434.72;;;5.08;60.83
78182;BME280;67441;50.116;8.696;2023-04-03T01:11:36;101447.94;;;5.11;61.08
78182;BME280;67441;50.116;8.696;2023-04-03T01:12:19;101433.59;;;5.03;60.70
78182;BME280;67441;50.116;8.696;2023-04-03T01:12:45;101432.28;;;5.11;60.84
78182;BME280;67441;50.116;8.696;2023-04-03T01:13:37;101380.69;;;4.71;61.36
78182;BME280;67441;50.116;8.696;2023-04-03T01:14:03;101362.19;;;4.67;60.87
78182;BME280;67441;50.116;8.696;2023-04-03T01:14:31;101430.50;;;5.10;60.86
78182;BME280;67441;50.116;8.696;2023-04-03T01:14:58;101433.31;;;5.15;61.22
78182;BME280;67441;50.116;8.696;2023-04-03T01:15:26;101341.09;;;4.62;61.18
78182;BME280;67441;50.116;8.696;2023-04-03T01:15:54;101438.75;;;5.19;60.89
78182;BME280;67441;50.116;8.696;2023-04-03T01:16:19;101437.06;;;5.20;60.42
78182;BME280;67441;50.116;8.696;2023-04-03T01:16:54;101408.63;;;5.08;60.13
78182;BME280;67441;50.116;8.696;2023-04-03T01:17:27;101433.31;;;5.15;60.48
78182;BME280;67441;50.116;8.696;2023-04-03T01:17:54;101431.69;;;5.17;60.45
78182;BME280;67441;50.116;8.696;2023-04-03T01:18:23;101432.59;;;5.17;60.18
78182;BME280;67441;50.116;8.696;2023-04-03T01:18:49;101437.50;;;5.11;60.33
78182;BME280;67441;50.116;8.696;2023-04-03T01:19:15;101434.88;;;5.11;60.60
78182;BME280;67441;50.116;8.696;2023-04-03T01:19:44;101442.56;;;5.08;60.54
78182;BME280;67441;50.116;8.696;2023-04-03T01:20:43;101430.16;;;5.04;60.53
78182;BME280;67441;50.116;8.696;2023-04-03T01:21:36;101429.13;;;5.00;60.28
78182;BME280;67441;50.116;8.696;2023-04-03T01:22:19;101439.72;;;5.04;60.17
78182;BME280;67441;50.116;8.696;2023-04-03T01:23:03;101436.72;;;4.96;60.68
78182;BME280;67441;50.116;8.696;2023-04-03T01:24:43;101425.88;;;4.88;60.57
78182;BME280;67441;50.116;8.696;2023-04-03T01:25:08;101390.38;;;4.74;60.63
78182;BME280;67441;50.116;8.696;2023-04-03T01:25:35;101432.91;;;4.89;60.47
78182;BME280;67441;50.116;8.696;2023-04-03T01:26:02;101436.47;;;4.91;60.51
78182;BME280;67441;50.116;8.696;2023-04-03T01:26:28;101424.34;;;4.92;60.74
78182;BME280;67441;50.116;8.696;2023-04-03T01:26:54;101428.75;;;4.93;60.65
78182;BME280;67441;50.116;8.696;2023-04-03T01:27:20;101429.56;;;4.92;60.50
78182;BME280;67441;50.116;8.696;2023-04-03T01:27:45;101384.38;;;4.59;60.40
78182;BME280;67441;50.116;8.696;2023-04-03T01:28:15;101427.19;;;4.96;60.44
78182;BME280;67441;50.116;8.696;2023-04-03T01:28:41;101300.78;;;4.21;60.44
78182;BME280;67441;50.116;8.696;2023-04-03T01:29:06;101418.03;;;4.88;60.78
78182;BME280;67441;50.116;8.696;2023-04-03T01:29:32;101403.56;;;4.77;60.95
78182;BME280;67441;50.116;8.696;2023-04-03T01:29:57;101422.53;;;4.91;60.79
78182;BME280;67441;50.116;8.696;2023-04-03T01:30:28;101421.09;;;4.80;60.55
78182;BME280;67441;50.116;8.696;2023-04-03T01:31:18;101408.34;;;4.68;60.71
78182;BME280;67441;50.116;8.696;2023-04-03T01:31:57;101423.38;;;4.90;60.83
78182;BME280;67441;50.116;8.696;2023-04-03T01:32:22;101399.25;;;4.77;60.83
78182;BME280;67441;50.116;8.696;2023-04-03T01:32:48;101426.13;;;4.93;60.55
78182;BME280;67441;50.116;8.696;2023-04-03T01:33:13;101422.47;;;4.89;60.04
78182;BME280;67441;50.116;8.696;2023-04-03T01:33:39;101430.38;;;4.91;60.54
78182;BME280;67441;50.116;8.696;2023-04-03T01:34:04;101420.38;;;4.82;60.50
78182;BME280;67441;50.116;8.696;2023-04-03T01:34:30;101419.38;;;4.80;60.61
78182;BME280;67441;50.116;8.696;2023-04-03T01:34:56;101304.69;;;4.13;60.58
78182;BME280;67441;50.116;8.696;2023-04-03T01:35:21;101385.28;;;4.59;60.86
78182;BME280;67441;50.116;8.696;2023-04-03T01:35:47;101428.84;;;4.78;60.90
78182;BME280;67441;50.116;8.696;2023-04-03T01:36:16;101420.78;;;4.73;61.45
78182;BME280;67441;50.116;8.696;2023-04-03T01:36:43;101339.47;;;4.30;61.05
78182;BME280;67441;50.116;8.696;2023-04-03T01:37:08;101422.22;;;4.85;60.95
78182;BME280;67441;50.116;8.696;2023-04-03T01:37:34;101420.59;;;4.87;60.81
78182;BME280;67441;50.116;8.696;2023-04-03T01:37:59;101420.59;;;4.87;61.12
78182;BME280;67441;50.116;8.696;2023-04-03T01:38:24;101385.50;;;4.64;61.07
78182;BME280;67441;50.116;8.696;2023-04-03T01:38:50;101424.03;;;4.86;60.85
78182;BME280;67441;50.116;8.696;2023-04-03T01:39:16;101420.59;;;4.87;61.01
78182;BME280;67441;50.116;8.696;2023-04-03T01:39:42;101422.22;;;4.85;60.47
78182;BME280;67441;50.116;8.696;2023-04-03T01:40:07;101416.25;;;4.87;60.58
78182;BME280;67441;50.116;8.696;2023-04-03T01:40:33;101419.69;;;4.86;60.82
78182;BME280;67441;50.116;8.696;2023-04-03T01:40:58;101421.59;;;4.89;60.67
78182;BME280;67441;50.116;8.696;2023-04-03T01:41:25;101417.00;;;4.85;61.12
78182;BME280;67441;50.116;8.696;2023-04-03T01:41:50;101422.22;;;4.85;61.22
78182;BME280;67441;50.116;8.696;2023-04-03T01:42:16;101425.66;;;4.84;60.87
78182;BME280;67441;50.116;8.696;2023-04-03T01:42:41;101419.69;;;4.86;61.00
78182;BME280;67441;50.116;8.696;2023-04-03T01:43:06;101397.41;;;4.75;61.37
78182;BME280;67441;50.116;8.696;2023-04-03T01:43:32;101420.53;;;4.85;61.52
78182;BME280;67441;50.116;8.696;2023-04-03T01:43:57;101379.31;;;4.62;61.31
78182;BME280;67441;50.116;8.696;2023-04-03T01:44:22;101418.81;;;4.86;61.14
78182;BME280;67441;50.116;8.696;2023-04-03T01:44:48;101424.25;;;4.90;61.10
78182;BME280;67441;50.116;8.696;2023-04-03T01:45:13;101417.63;;;4.97;60.66
78182;BME280;67441;50.116;8.696;2023-04-03T01:45:39;101423.91;;;5.00;61.29
78182;BME280;67441;50.116;8.696;2023-04-03T01:46:04;101416.91;;;4.99;61.18
78182;BME280;67441;50.116;8.696;2023-04-03T01:46:30;101334.47;;;4.51;60.98
78182;BME280;67441;50.116;8.696;2023-04-03T01:46:55;101417.56;;;4.95;61.10
78182;BME280;67441;50.116;8.696;2023-04-03T01:47:21;101414.72;;;4.91;61.30
78182;BME280;67441;50.116;8.696;2023-04-03T01:47:46;101329.81;;;4.45;61.06
78182;BME280;67441;50.116;8.696;2023-04-03T01:48:12;101423.75;;;4.97;60.97
78182;BME280;67441;50.116;8.696;2023-04-03T01:48:38;101422.84;;;4.97;61.10
78182;BME280;67441;50.116;8.696;2023-04-03T01:49:03;101428.06;;;4.97;61.38
78182;BME280;67441;50.116;8.696;2023-04-03T01:49:29;101337.13;;;4.52;60.98
78182;BME280;67441;50.116;8.696;2023-04-03T01:49:54;101422.13;;;4.99;61.37
78182;BME280;67441;50.116;8.696;2023-04-03T01:50:20;101331.44;;;4.43;61.46
78182;BME280;67441;50.116;8.696;2023-04-03T01:50:45;101415.09;;;4.98;61.04
78182;BME280;67441;50.116;8.696;2023-04-03T01:51:11;101236.34;;;3.85;61.10
78182;BME280;67441;50.116;8.696;2023-04-03T01:51:37;101418.75;;;5.02;61.17
78182;BME280;67441;50.116;8.696;2023-04-03T01:52:02;101278.31;;;4.23;60.47
78182;BME280;67441;50.116;8.696;2023-04-03T01:52:28;101415.34;;;5.03;60.48
78182;BME280;67441;50.116;8.696;2023-04-03T01:52:53;101429.06;;;4.99;60.87
78182;BME280;67441;50.116;8.696;2023-04-03T01:53:19;101423.75;;;4.97;60.82
78182;BME280;67441;50.116;8.696;2023-04-03T01:53:44;101430.69;;;4.97;60.82
78182;BME280;67441;50.116;8.696;2023-04-03T01:54:10;101429.47;;;4.90;61.43
78182;BME280;67441;50.116;8.696;2023-04-03T01:54:35;101431.25;;;4.91;61.46
78182;BME280;67441;50.116;8.696;2023-04-03T01:55:01;101416.94;;;4.83;61.39
78182;BME280;67441;50.116;8.696;2023-04-03T01:55:26;101436.09;;;4.84;61.37
78182;BME280;67441;50.116;8.696;2023-04-03T01:55:52;101420.53;;;4.85;61.78
78182;BME280;67441;50.116;8.696;2023-04-03T01:56:17;101417.91;;;4.85;61.39
78182;BME280;67441;50.116;8.696;2023-04-03T01:56:42;101422.22;;;4.85;61.20
78182;BME280;67441;50.116;8.696;2023-04-03T01:57:08;101405.22;;;4.75;61.08
78182;BME280;67441;50.116;8.696;2023-04-03T01:57:33;101423.88;;;4.83;61.25
78182;BME280;67441;50.116;8.696;2023-04-03T01:57:59;101354.50;;;4.36;61.40
78182;BME280;67441;50.116;8.696;2023-04-03T01:58:24;101417.59;;;4.79;61.38
78182;BME280;67441;50.116;8.696;2023-04-03T01:58:50;101369.91;;;4.47;61.33
78182;BME280;67441;50.116;8.696;2023-04-03T01:59:15;101424.38;;;4.75;61.53
78182;BME280;67441;50.116;8.696;2023-04-03T01:59:43;101425.59;;;4.82;61.83
78182;BME280;67441;50.116;8.696;2023-04-03T02:00:08;101423.72;;;4.80;61.90
78182;BME280;67441;50.116;8.696;2023-04-03T02:00:34;101259.88;;;3.86;61.63
78182;BME280;67441;50.116;8.696;2023-04-03T02:01:00;101422.81;;;4.79;61.60
78182;BME280;67441;50.116;8.696;2023-04-03T02:01:25;101431.31;;;4.75;61.89
78182;BME280;67441;50.116;8.696;2023-04-03T02:01:50;101284.75;;;3.97;61.94
78182;BME280;67441;50.116;8.696;2023-04-03T02:02:16;101422.56;;;4.74;62.16
78182;BME280;67441;50.116;8.696;2023-04-03T02:02:41;101425.03;;;4.71;61.88
78182;BME280;67441;50.116;8.696;2023-04-03T02:03:07;101424.09;;;4.71;62.03
78182;BME280;67441;50.116;8.696;2023-04-03T02:03:32;101435.47;;;4.71;62.31
78182;BME280;67441;50.116;8.696;2023-04-03T02:03:58;101336.69;;;4.27;62.16
78182;BME280;67441;50.116;8.696;2023-04-03T02:04:23;101427.88;;;4.76;62.58
78182;BME280;67441;50.116;8.696;2023-04-03T02:04:49;101440.97;;;4.77;62.11
78182;BME280;67441;50.116;8.696;2023-04-03T02:05:14;101433.16;;;4.77;62.30
78182;BME280;67441;50.116;8.696;2023-04-03T02:05:40;101438.47;;;4.79;62.22
78182;BME280;67441;50.116;8.696;2023-04-03T02:06:05;101294.44;;;4.00;62.06
78182;BME280;67441;50.116;8.696;2023-04-03T02:06:31;101420.94;;;4.76;62.25
78182;BME280;67441;50.116;8.696;2023-04-03T02:06:56;101428.03;;;4.79;62.81
78182;BME280;67441;50.116;8.696;2023-04-03T02:07:22;101434.38;;;4.84;62.11
78182;BME280;67441;50.116;8.696;2023-04-03T02:07:47;101423.19;;;4.87;62.02
78182;BME280;67441;50.116;8.696;2023-04-03T02:08:12;101424.09;;;4.87;62.07
78182;BME280;67441;50.116;8.696;2023-04-03T02:08:38;101310.75;;;4.12;61.94
78182;BME280;67441;50.116;8.696;2023-04-03T02:09:04;101429.31;;;4.87;62.00
78182;BME280;67441;50.116;8.696;2023-04-03T02:09:29;101342.63;;;4.41;62.43
78182;BME280;67441;50.116;8.696;2023-04-03T02:09:55;101432.06;;;4.90;62.14
78182;BME280;67441;50.116;8.696;2023-04-03T02:10:20;101424.19;;;4.89;62.15
78182;BME280;67441;50.116;8.696;2023-04-03T02:10:49;101430.47;;;4.92;62.00
78182;BME280;67441;50.116;8.696;2023-04-03T02:11:15;101334.09;;;4.27;62.20
78182;BME280;67441;50.116;8.696;2023-04-03T02:11:41;101426.88;;;4.90;61.77
78182;BME280;67441;50.116;8.696;2023-04-03T02:12:06;101310.75;;;4.12;62.31
78182;BME280;67441;50.116;8.696;2023-04-03T02:12:32;101429.31;;;4.87;62.26
78182;BME280;67441;50.116;8.696;2023-04-03T02:12:57;101419.59;;;4.85;61.99
78182;BME280;67441;50.116;8.696;2023-04-03T02:13:22;101429.56;;;4.92;62.12
78182;BME280;67441;50.116;8.696;2023-04-03T02:13:48;101430.69;;;4.97;62.01
78182;BME280;67441;50.116;8.696;2023-04-03T02:14:13;101428.00;;;4.95;62.09
78182;BME280;67441;50.116;8.696;2023-04-03T02:14:39;101285.31;;;4.08;61.89
78182;BME280;67441;50.116;8.696;2023-04-03T02:15:05;101262.53;;;3.88;61.88
78182;BME280;67441;50.116;8.696;2023-04-03T02:15:30;101422.38;;;4.88;61.91
78182;BME280;67441;50.116;8.696;2023-04-03T02:15:55;101433.88;;;4.91;62.49
78182;BME280;67441;50.116;8.696;2023-04-03T02:16:21;101391.13;;;4.71;62.23
78182;BME280;67441;50.116;8.696;2023-04-03T02:16:46;101432.31;;;4.95;62.14
78182;BME280;67441;50.116;8.696;2023-04-03T02:17:12;101433.22;;;4.95;62.08
78182;BME280;67441;50.116;8.696;2023-04-03T02:17:37;101428.91;;;4.96;62.14
78182;BME280;67441;50.116;8.696;2023-04-03T02:18:02;101442.84;;;4.96;62.41
78182;BME280;67441;50.116;8.696;2023-04-03T02:18:28;101424.47;;;4.95;62.31
78182;BME280;67441;50.116;8.696;2023-04-03T02:18:53;101374.00;;;4.60;61.70
78182;BME280;67441;50.116;8.696;2023-04-03T02:19:19;101424.91;;;4.86;62.23
78182;BME280;67441;50.116;8.696;2023-04-03T02:19:44;101262.84;;;3.94;62.40
78182;BME280;67441;50.116;8.696;2023-04-03T02:20:10;101427.31;;;4.82;62.52
78182;BME280;67441;50.116;8.696;2023-04-03T02:20:35;101388.88;;;4.61;62.56
78182;BME280;67441;50.116;8.696;2023-04-03T02:21:01;101424.97;;;4.88;62.56
78182;BME280;67441;50.116;8.696;2023-04-03T02:21:26;101389.25;;;4.69;62.42
78182;BME280;67441;50.116;8.696;2023-04-03T02:21:52;101385.16;;;4.74;62.34
78182;BME280;67441;50.116;8.696;2023-04-03T02:22:18;101433.22;;;4.95;62.32
78182;BME280;67441;50.116;8.696;2023-04-03T02:22:45;101240.81;;;3.87;62.47
78182;BME280;67441;50.116;8.696;2023-04-03T02:23:11;101388.53;;;4.71;62.30
78182;BME280;67441;50.116;8.696;2023-04-03T02:23:36;101422.53;;;4.91;62.31
78182;BME280;67441;50.116;8.696;2023-04-03T02:24:02;101379.78;;;4.71;62.19
78182;BME280;67441;50.116;8.696;2023-04-03T02:24:27;101425.41;;;4.95;62.80